Time;durP1;ratioP1;P1;durP2;ratioP2;P2;SDS_P1;SDS_P2;PMS_P1;PMS_P2;Temp;Humidity;BMP_temperature;BMP_pressure;BME280_temperature;BME280_humidity;BME280_pressure;Samples;Min_cycle;Max_cycle;Signal;HPM_P1;HPM_P2
2020/12/22 00:01:08;;;;;;;;;;;16.30;66.40;;;;;;5061886;28;19912;-70
2020/12/22 00:03:34;;;;;;;;;;;16.30;66.60;;;;;;5065103;28;19908;-70
2020/12/22 00:05:59;;;;;;;;;;;16.40;66.50;;;;;;5046624;28;19962;-70
2020/12/22 00:08:24;;;;;;;;;;;16.30;66.30;;;;;;5051606;28;19912;-70
2020/12/22 00:10:50;;;;;;;;;;;16.40;66.40;;;;;;5054510;28;19916;-70
2020/12/22 00:13:15;;;;;;;;;;;16.40;66.50;;;;;;5042936;28;19962;-70
2020/12/22 00:15:41;;;;;;;;;;;16.30;66.40;;;;;;5058004;28;19962;-69
2020/12/22 00:18:06;;;;;;;;;;;16.30;66.80;;;;;;5041504;28;19914;-70
2020/12/22 00:20:32;;;;;;;;;;;16.30;66.40;;;;;;5068213;28;19916;-70
2020/12/22 00:22:57;;;;;;;;;;;16.30;66.20;;;;;;5039683;28;19916;-71
2020/12/22 00:25:23;;;;;;;;;;;16.30;66.30;;;;;;5060147;28;19962;-69
2020/12/22 00:27:48;;;;;;;;;;;16.40;66.60;;;;;;5062264;28;20003;-69
2020/12/22 00:30:13;;;;;;;;;;;16.40;66.30;;;;;;5065565;28;20366;-71
2020/12/22 00:32:39;;;;;;;;;;;16.40;66.40;;;;;;5058397;28;19968;-70
2020/12/22 00:35:04;;;;;;;;;;;16.50;66.40;;;;;;5037732;28;19920;-69
2020/12/22 00:37:30;;;;;;;;;;;16.30;66.70;;;;;;5044637;28;19913;-71
2020/12/22 00:39:55;;;;;;;;;;;16.40;66.30;;;;;;5060505;28;19909;-72
2020/12/22 00:42:21;;;;;;;;;;;16.30;66.20;;;;;;5061932;28;20018;-70
2020/12/22 00:44:46;;;;;;;;;;;16.30;66.40;;;;;;5037949;28;19931;-70
2020/12/22 00:47:12;;;;;;;;;;;16.40;66.50;;;;;;5054028;28;19908;-71
2020/12/22 00:49:37;;;;;;;;;;;16.30;66.70;;;;;;5043509;28;19913;-70
2020/12/22 00:52:03;;;;;;;;;;;16.40;66.30;;;;;;5056844;28;19908;-70
2020/12/22 00:54:28;;;;;;;;;;;16.30;66.60;;;;;;5044734;28;19915;-69
2020/12/22 00:56:53;;;;;;;;;;;16.40;66.60;;;;;;5050049;28;19973;-70
2020/12/22 00:59:19;;;;;;;;;;;16.40;66.40;;;;;;5045865;28;19908;-70
2020/12/22 01:01:44;;;;;;;;;;;16.30;66.50;;;;;;5053186;28;20443;-70
2020/12/22 01:04:10;;;;;;;;;;;16.30;66.70;;;;;;5060771;28;20270;-71
2020/12/22 01:06:36;;;;;;;;;;;16.40;66.40;;;;;;5064940;28;19909;-71
2020/12/22 01:09:02;;;;;;;;;;;16.40;66.60;;;;;;5035608;28;20574;-70
2020/12/22 01:11:31;;;;;;;;;;;16.30;66.80;;;;;;5060470;28;20039;-70
2020/12/22 01:13:57;;;;;;;;;;;16.30;67.20;;;;;;5048356;28;20034;-69
2020/12/22 01:16:22;;;;;;;;;;;16.30;66.90;;;;;;5037859;28;20011;-71
2020/12/22 01:18:49;;;;;;;;;;;16.30;66.90;;;;;;5060852;28;19916;-71
2020/12/22 01:21:20;;;;;;;;;;;16.30;67.00;;;;;;5065557;28;19966;-71
2020/12/22 01:23:46;;;;;;;;;;;16.30;67.30;;;;;;5057180;28;20538;-70
2020/12/22 01:26:12;;;;;;;;;;;16.30;68.50;;;;;;5044201;28;19908;-69
2020/12/22 01:28:37;;;;;;;;;;;16.30;67.70;;;;;;5061441;28;20407;-70
2020/12/22 01:31:03;;;;;;;;;;;16.30;67.80;;;;;;5049447;28;19908;-70
2020/12/22 01:33:28;;;;;;;;;;;16.30;67.30;;;;;;5037598;28;19955;-71
2020/12/22 01:35:54;;;;;;;;;;;16.30;66.90;;;;;;5064715;28;19931;-70
2020/12/22 01:38:19;;;;;;;;;;;16.30;68.30;;;;;;5043557;28;19908;-71
2020/12/22 01:40:48;;;;;;;;;;;16.30;69.30;;;;;;5058385;28;19916;-71
2020/12/22 01:43:14;;;;;;;;;;;16.30;69.00;;;;;;5061317;28;19912;-69
2020/12/22 01:45:39;;;;;;;;;;;16.30;68.40;;;;;;5062331;28;19958;-70
2020/12/22 01:48:05;;;;;;;;;;;16.20;68.90;;;;;;5061459;28;19909;-71
2020/12/22 01:50:30;;;;;;;;;;;16.30;68.30;;;;;;5041957;28;19948;-70
2020/12/22 01:52:55;;;;;;;;;;;16.20;69.40;;;;;;5059643;28;19909;-71
2020/12/22 01:55:21;;;;;;;;;;;16.30;68.80;;;;;;5043688;28;19908;-70
2020/12/22 01:57:46;;;;;;;;;;;16.30;68.20;;;;;;5059754;28;19935;-70
2020/12/22 02:00:12;;;;;;;;;;;16.30;68.30;;;;;;5061528;28;19953;-70
2020/12/22 02:02:38;;;;;;;;;;;16.30;69.10;;;;;;5048215;28;20673;-69
2020/12/22 02:05:26;;;;;;;;;;;16.30;69.00;;;;;;5063708;28;19909;-69
2020/12/22 02:07:51;;;;;;;;;;;16.30;68.90;;;;;;5037895;28;20007;-71
2020/12/22 02:10:17;;;;;;;;;;;16.30;68.50;;;;;;5038233;28;20003;-69
2020/12/22 02:12:42;;;;;;;;;;;16.30;70.20;;;;;;5035427;28;19912;-71
2020/12/22 02:15:08;;;;;;;;;;;16.30;69.70;;;;;;5050487;28;19912;-72
2020/12/22 02:17:34;;;;;;;;;;;16.30;69.70;;;;;;5055376;28;20006;-70
2020/12/22 02:20:00;;;;;;;;;;;16.30;69.80;;;;;;5056668;28;19932;-70
2020/12/22 02:22:26;;;;;;;;;;;16.30;70.00;;;;;;5059333;28;19909;-70
2020/12/22 02:24:51;;;;;;;;;;;16.30;69.00;;;;;;5047464;28;19916;-72
2020/12/22 02:27:17;;;;;;;;;;;16.30;69.30;;;;;;5035397;28;19963;-71
2020/12/22 02:29:42;;;;;;;;;;;16.30;69.00;;;;;;5062945;28;19909;-70
2020/12/22 02:32:08;;;;;;;;;;;16.30;69.40;;;;;;5048568;28;19934;-70
2020/12/22 02:34:33;;;;;;;;;;;16.30;69.60;;;;;;5046104;28;19916;-70
2020/12/22 02:36:59;;;;;;;;;;;16.30;69.20;;;;;;5060746;28;19966;-71
2020/12/22 02:39:24;;;;;;;;;;;16.30;69.40;;;;;;5058206;28;19909;-70
2020/12/22 02:41:50;;;;;;;;;;;16.30;69.80;;;;;;5062195;28;20000;-71
2020/12/22 02:44:15;;;;;;;;;;;16.30;70.00;;;;;;5041737;28;19991;-71
2020/12/22 02:49:44;;;;;;;;;;;16.20;71.00;;;;;;5064006;28;20455;-70
2020/12/22 02:52:09;;;;;;;;;;;16.30;70.80;;;;;;5054869;28;19940;-69
2020/12/22 02:54:35;;;;;;;;;;;16.30;70.40;;;;;;5049279;28;19908;-72
2020/12/22 02:57:01;;;;;;;;;;;16.30;70.00;;;;;;5036062;28;19995;-68
2020/12/22 02:59:26;;;;;;;;;;;16.30;69.70;;;;;;5061688;28;19912;-71
2020/12/22 03:01:52;;;;;;;;;;;16.30;69.30;;;;;;5045186;28;19909;-71
2020/12/22 03:04:17;;;;;;;;;;;16.30;69.10;;;;;;5047144;28;19912;-69
2020/12/22 03:06:43;;;;;;;;;;;16.40;70.30;;;;;;5041198;28;20007;-69
2020/12/22 03:09:08;;;;;;;;;;;16.40;69.50;;;;;;5037180;28;20262;-72
2020/12/22 03:11:34;;;;;;;;;;;16.40;68.60;;;;;;5058810;28;19909;-71
2020/12/22 03:14:00;;;;;;;;;;;16.40;69.90;;;;;;5044502;28;19908;-70
2020/12/22 03:16:25;;;;;;;;;;;16.40;68.80;;;;;;5036423;28;19913;-69
2020/12/22 03:18:50;;;;;;;;;;;16.30;69.00;;;;;;5057233;28;19931;-72
2020/12/22 03:21:16;;;;;;;;;;;16.40;68.90;;;;;;5072430;28;20391;-69
2020/12/22 03:23:42;;;;;;;;;;;16.40;69.10;;;;;;5057772;28;20366;-69
2020/12/22 03:26:07;;;;;;;;;;;16.30;70.30;;;;;;5061252;28;19917;-70
2020/12/22 03:28:33;;;;;;;;;;;16.40;69.00;;;;;;5066238;28;19908;-70
2020/12/22 03:30:58;;;;;;;;;;;16.40;69.50;;;;;;5039664;28;19908;-69
2020/12/22 03:33:23;;;;;;;;;;;16.40;69.80;;;;;;5042558;28;19943;-71
2020/12/22 03:35:49;;;;;;;;;;;16.40;69.70;;;;;;5063847;28;19908;-70
2020/12/22 03:38:14;;;;;;;;;;;16.40;69.40;;;;;;5044160;28;20009;-72
2020/12/22 03:40:40;;;;;;;;;;;16.40;69.50;;;;;;5057970;28;19912;-70
2020/12/22 03:43:05;;;;;;;;;;;16.40;69.60;;;;;;5046299;28;19915;-72
2020/12/22 03:45:31;;;;;;;;;;;16.40;69.10;;;;;;5061432;28;19914;-70
2020/12/22 03:47:56;;;;;;;;;;;16.40;69.20;;;;;;5038344;28;19909;-68
2020/12/22 03:50:22;;;;;;;;;;;16.40;68.60;;;;;;5062025;28;20353;-70
2020/12/22 03:52:47;;;;;;;;;;;16.40;69.10;;;;;;5039573;28;20289;-70
2020/12/22 03:55:13;;;;;;;;;;;16.40;69.40;;;;;;5043030;28;19951;-69
2020/12/22 03:57:39;;;;;;;;;;;16.40;68.80;;;;;;5062422;28;19916;-69
2020/12/22 04:00:04;;;;;;;;;;;16.40;68.60;;;;;;5039775;28;19959;-71
2020/12/22 04:02:30;;;;;;;;;;;16.40;68.60;;;;;;5063924;28;19962;-70
2020/12/22 04:04:55;;;;;;;;;;;16.40;68.80;;;;;;5061696;28;19944;-70
2020/12/22 04:07:21;;;;;;;;;;;16.40;68.00;;;;;;5050828;28;19908;-71
2020/12/22 04:09:46;;;;;;;;;;;16.40;69.40;;;;;;5065813;28;19915;-72
2020/12/22 04:12:12;;;;;;;;;;;16.40;68.50;;;;;;5045309;28;19908;-69
2020/12/22 04:14:37;;;;;;;;;;;16.40;68.20;;;;;;5062282;28;19919;-71
2020/12/22 04:17:03;;;;;;;;;;;16.40;68.00;;;;;;5055090;28;19913;-71
2020/12/22 04:19:29;;;;;;;;;;;16.40;68.60;;;;;;5045915;28;19916;-70
2020/12/22 04:21:55;;;;;;;;;;;16.50;67.90;;;;;;5070562;28;19955;-70
2020/12/22 04:24:20;;;;;;;;;;;16.40;68.80;;;;;;5047211;28;20391;-71
2020/12/22 04:26:45;;;;;;;;;;;16.40;68.30;;;;;;5052436;28;19916;-71
2020/12/22 04:29:11;;;;;;;;;;;16.40;68.70;;;;;;5055275;28;19913;-71
2020/12/22 04:31:36;;;;;;;;;;;16.40;68.50;;;;;;5033108;28;20381;-69
2020/12/22 04:34:02;;;;;;;;;;;16.50;68.00;;;;;;5042544;28;19915;-70
2020/12/22 04:36:27;;;;;;;;;;;16.50;68.40;;;;;;5055392;28;20011;-70
2020/12/22 04:38:53;;;;;;;;;;;16.40;68.70;;;;;;5059881;28;19909;-70
2020/12/22 04:41:20;;;;;;;;;;;16.50;68.20;;;;;;5056369;28;19909;-70
2020/12/22 04:43:46;;;;;;;;;;;16.50;68.10;;;;;;5035339;28;19908;-70
2020/12/22 04:46:15;;;;;;;;;;;16.50;68.20;;;;;;5051030;28;19935;-71
2020/12/22 04:48:41;;;;;;;;;;;16.50;68.20;;;;;;5060980;28;20387;-71
2020/12/22 04:51:08;;;;;;;;;;;16.50;69.10;;;;;;5033462;28;19995;-71
2020/12/22 04:53:34;;;;;;;;;;;16.50;68.50;;;;;;5041786;28;19909;-69
2020/12/22 04:56:00;;;;;;;;;;;16.50;68.80;;;;;;5058766;28;19913;-69
2020/12/22 04:58:27;;;;;;;;;;;16.50;68.60;;;;;;5060125;28;19913;-71
2020/12/22 05:00:52;;;;;;;;;;;16.50;68.90;;;;;;5039996;28;20374;-71
2020/12/22 05:03:20;;;;;;;;;;;16.50;69.00;;;;;;5053690;28;19923;-72
2020/12/22 05:05:45;;;;;;;;;;;16.50;68.10;;;;;;5037212;28;19943;-70
2020/12/22 05:08:11;;;;;;;;;;;16.50;68.00;;;;;;5038768;28;19997;-69
2020/12/22 05:10:40;;;;;;;;;;;16.50;68.00;;;;;;5039510;28;19912;-74
2020/12/22 05:13:05;;;;;;;;;;;16.50;68.20;;;;;;5052409;28;20400;-71
2020/12/22 05:15:31;;;;;;;;;;;16.50;68.20;;;;;;5062884;28;19947;-71
2020/12/22 05:17:58;;;;;;;;;;;16.50;68.30;;;;;;5059488;28;20369;-72
2020/12/22 05:20:23;;;;;;;;;;;16.50;68.10;;;;;;5045390;28;19939;-71
2020/12/22 05:22:49;;;;;;;;;;;16.50;68.10;;;;;;5044688;28;20425;-71
2020/12/22 05:25:18;;;;;;;;;;;16.50;68.00;;;;;;5061832;28;20000;-72
2020/12/22 05:27:46;;;;;;;;;;;16.50;68.00;;;;;;5044572;28;20363;-72
2020/12/22 05:30:15;;;;;;;;;;;16.60;67.60;;;;;;5037892;28;20302;-71
2020/12/22 05:32:41;;;;;;;;;;;16.50;67.90;;;;;;5063431;28;19913;-73
2020/12/22 05:35:07;;;;;;;;;;;16.50;68.10;;;;;;5062445;28;20361;-71
2020/12/22 05:37:38;;;;;;;;;;;16.50;68.00;;;;;;5059508;28;19919;-72
2020/12/22 05:40:06;;;;;;;;;;;16.50;67.80;;;;;;5047463;28;19915;-71
2020/12/22 05:42:32;;;;;;;;;;;16.60;67.90;;;;;;5051418;28;19916;-70
2020/12/22 05:44:57;;;;;;;;;;;16.60;68.00;;;;;;5055818;28;19912;-71
2020/12/22 05:47:23;;;;;;;;;;;16.50;68.00;;;;;;5059358;28;19909;-72
2020/12/22 05:49:52;;;;;;;;;;;16.60;68.10;;;;;;5055849;28;19912;-70
2020/12/22 05:52:19;;;;;;;;;;;16.60;68.00;;;;;;5050471;28;19969;-69
2020/12/22 05:54:46;;;;;;;;;;;16.50;68.10;;;;;;5034513;28;20173;-70
2020/12/22 05:57:11;;;;;;;;;;;16.50;68.00;;;;;;5048351;28;19912;-70
2020/12/22 05:59:36;;;;;;;;;;;16.60;67.80;;;;;;5065872;28;19948;-69
2020/12/22 06:02:03;;;;;;;;;;;16.60;67.80;;;;;;5056767;28;20372;-71
2020/12/22 06:04:29;;;;;;;;;;;16.60;67.80;;;;;;5046570;28;20384;-70
2020/12/22 06:06:55;;;;;;;;;;;16.60;67.90;;;;;;5040371;28;19913;-70
2020/12/22 06:09:21;;;;;;;;;;;16.60;67.80;;;;;;5030507;28;19959;-69
2020/12/22 06:11:47;;;;;;;;;;;16.60;67.90;;;;;;5043559;28;19948;-69
2020/12/22 06:14:15;;;;;;;;;;;16.60;67.80;;;;;;5050096;28;19915;-69
2020/12/22 06:16:41;;;;;;;;;;;16.60;68.20;;;;;;5042302;28;20388;-71
2020/12/22 06:19:06;;;;;;;;;;;16.60;68.20;;;;;;5049554;28;19915;-68
2020/12/22 06:21:32;;;;;;;;;;;16.60;67.90;;;;;;5049938;28;19944;-69
2020/12/22 06:23:57;;;;;;;;;;;16.60;68.00;;;;;;5064621;28;19915;-71
2020/12/22 06:26:23;;;;;;;;;;;16.60;68.00;;;;;;5067969;28;19912;-70
2020/12/22 06:28:48;;;;;;;;;;;16.60;68.20;;;;;;5043407;28;19912;-71
2020/12/22 06:31:14;;;;;;;;;;;16.50;68.00;;;;;;5055733;28;19909;-70
2020/12/22 06:33:40;;;;;;;;;;;16.50;68.00;;;;;;5054875;28;20073;-70
2020/12/22 06:36:06;;;;;;;;;;;16.60;68.00;;;;;;5035046;28;19943;-71
2020/12/22 06:38:47;;;;;;;;;;;16.60;68.00;;;;;;5042187;28;19909;-71
2020/12/22 06:41:25;;;;;;;;;;;16.60;68.00;;;;;;5060159;28;19939;-70
2020/12/22 06:43:53;;;;;;;;;;;16.60;67.90;;;;;;5057264;28;20373;-68
2020/12/22 06:46:34;;;;;;;;;;;16.60;67.90;;;;;;5056318;28;19912;-69
2020/12/22 06:49:00;;;;;;;;;;;16.60;67.80;;;;;;5055998;28;19952;-69
2020/12/22 06:51:32;;;;;;;;;;;16.60;67.80;;;;;;5041846;28;20603;-69
2020/12/22 06:53:59;;;;;;;;;;;16.60;67.60;;;;;;5060371;28;19908;-72
2020/12/22 06:56:37;;;;;;;;;;;16.50;67.60;;;;;;5046400;28;19913;-70
2020/12/22 06:59:02;;;;;;;;;;;16.60;67.70;;;;;;5045611;28;20417;-70
2020/12/22 07:01:32;;;;;;;;;;;16.60;67.60;;;;;;5046684;28;20003;-68
2020/12/22 07:04:16;;;;;;;;;;;16.60;68.10;;;;;;5041036;28;19916;-70
2020/12/22 07:06:49;;;;;;;;;;;16.60;68.00;;;;;;5044764;28;20743;-68
2020/12/22 07:09:15;;;;;;;;;;;16.60;68.10;;;;;;5015517;28;19920;-70
2020/12/22 07:11:40;;;;;;;;;;;16.60;68.00;;;;;;5044271;28;20317;-71
2020/12/22 07:14:06;;;;;;;;;;;16.60;67.90;;;;;;5043956;28;19940;-71
2020/12/22 07:16:44;;;;;;;;;;;16.60;67.70;;;;;;5028452;28;19912;-70
2020/12/22 07:19:10;;;;;;;;;;;16.60;67.60;;;;;;5046396;28;20003;-70
2020/12/22 07:21:37;;;;;;;;;;;16.60;67.70;;;;;;5024308;28;19904;-70
2020/12/22 07:24:02;;;;;;;;;;;16.60;67.60;;;;;;5042694;28;20088;-69
2020/12/22 07:26:28;;;;;;;;;;;16.60;67.50;;;;;;5028360;28;20370;-70
2020/12/22 07:28:55;;;;;;;;;;;16.60;67.50;;;;;;5021266;28;19958;-69
2020/12/22 07:34:24;;;;;;;;;;;16.60;67.70;;;;;;5041571;28;19931;-74
2020/12/22 07:36:50;;;;;;;;;;;16.60;67.80;;;;;;5039936;28;19916;-74
2020/12/22 07:39:16;;;;;;;;;;;16.70;68.00;;;;;;5023928;28;19974;-74
2020/12/22 07:41:42;;;;;;;;;;;16.70;68.00;;;;;;5022757;28;19912;-75
2020/12/22 07:44:08;;;;;;;;;;;16.70;68.30;;;;;;5020181;28;19945;-74
2020/12/22 07:46:33;;;;;;;;;;;16.70;68.80;;;;;;5004449;28;19916;-74
2020/12/22 07:49:05;;;;;;;;;;;16.70;69.40;;;;;;5017864;28;19917;-74
2020/12/22 07:51:31;;;;;;;;;;;16.70;68.90;;;;;;5024218;28;19921;-74
2020/12/22 07:54:04;;;;;;;;;;;16.70;69.20;;;;;;5001307;28;20362;-74
2020/12/22 07:56:31;;;;;;;;;;;16.70;69.90;;;;;;5025386;28;19920;-72
2020/12/22 07:58:57;;;;;;;;;;;16.80;70.30;;;;;;5022376;28;19908;-74
2020/12/22 08:01:23;;;;;;;;;;;17.00;70.00;;;;;;5025900;28;19912;-73
2020/12/22 08:03:49;;;;;;;;;;;17.00;70.00;;;;;;5027854;28;20007;-76
2020/12/22 08:06:14;;;;;;;;;;;17.20;70.00;;;;;;5000655;28;19999;-77
2020/12/22 08:08:40;;;;;;;;;;;17.30;69.90;;;;;;5006569;28;19938;-77
2020/12/22 08:11:06;;;;;;;;;;;17.40;69.70;;;;;;5003597;28;20003;-74
2020/12/22 08:13:34;;;;;;;;;;;17.40;69.90;;;;;;5018728;28;19952;-74
2020/12/22 08:16:00;;;;;;;;;;;17.50;69.90;;;;;;5013455;28;19992;-73
2020/12/22 08:18:27;;;;;;;;;;;17.50;70.70;;;;;;5006916;28;19991;-72
2020/12/22 08:20:57;;;;;;;;;;;17.50;70.60;;;;;;5018901;28;20384;-72
2020/12/22 08:23:23;;;;;;;;;;;17.50;71.70;;;;;;5002389;28;20575;-72
2020/12/22 08:25:49;;;;;;;;;;;17.50;71.90;;;;;;5005530;28;19916;-72
2020/12/22 08:28:21;;;;;;;;;;;17.60;73.00;;;;;;5017782;28;19913;-72
2020/12/22 08:30:46;;;;;;;;;;;17.60;73.50;;;;;;4999814;28;20623;-70
2020/12/22 08:33:16;;;;;;;;;;;17.60;73.80;;;;;;5017303;28;19940;-74
2020/12/22 08:35:43;;;;;;;;;;;17.70;74.30;;;;;;5003197;28;19913;-70
2020/12/22 08:38:19;;;;;;;;;;;17.80;75.00;;;;;;5005933;28;19951;-75
2020/12/22 08:40:45;;;;;;;;;;;17.80;74.70;;;;;;5019535;28;19913;-70
2020/12/22 08:43:10;;;;;;;;;;;17.80;74.70;;;;;;5020938;28;19916;-71
2020/12/22 08:45:40;;;;;;;;;;;17.80;74.80;;;;;;5000148;28;19909;-73
2020/12/22 08:48:06;;;;;;;;;;;17.80;75.10;;;;;;5013334;28;19964;-71
2020/12/22 08:50:31;;;;;;;;;;;17.80;75.00;;;;;;4997634;28;20865;-69
2020/12/22 08:52:57;;;;;;;;;;;17.80;75.10;;;;;;5017753;28;19943;-70
2020/12/22 08:55:25;;;;;;;;;;;17.70;75.20;;;;;;4997652;28;20459;-71
2020/12/22 08:57:50;;;;;;;;;;;17.80;75.30;;;;;;4990605;28;19917;-74
2020/12/22 09:00:17;;;;;;;;;;;17.80;75.50;;;;;;4993182;28;20035;-70
2020/12/22 09:02:52;;;;;;;;;;;17.80;76.30;;;;;;5006733;28;19992;-70
2020/12/22 09:05:20;;;;;;;;;;;17.80;76.30;;;;;;5016156;28;19924;-74
2020/12/22 09:07:56;;;;;;;;;;;17.90;76.50;;;;;;5012108;28;19913;-74
2020/12/22 09:10:21;;;;;;;;;;;17.90;75.70;;;;;;5007208;28;19913;-75
2020/12/22 09:12:46;;;;;;;;;;;17.90;75.90;;;;;;5003967;28;19919;-73
2020/12/22 09:15:12;;;;;;;;;;;17.90;75.70;;;;;;4989942;28;19988;-72
2020/12/22 09:17:37;;;;;;;;;;;17.90;75.80;;;;;;5008497;28;20000;-71
2020/12/22 09:20:04;;;;;;;;;;;17.90;75.50;;;;;;5014801;28;20071;-71
2020/12/22 09:22:30;;;;;;;;;;;17.90;75.40;;;;;;5011027;28;19948;-72
2020/12/22 09:24:57;;;;;;;;;;;18.00;75.60;;;;;;5010494;28;20031;-71
2020/12/22 09:27:32;;;;;;;;;;;18.00;76.10;;;;;;5008841;28;20539;-73
2020/12/22 09:29:57;;;;;;;;;;;18.00;75.80;;;;;;5014247;28;19917;-73
2020/12/22 09:32:23;;;;;;;;;;;18.10;75.70;;;;;;5022269;28;19920;-69
2020/12/22 09:34:49;;;;;;;;;;;18.00;75.50;;;;;;5010826;28;20028;-70
2020/12/22 09:37:14;;;;;;;;;;;18.10;75.60;;;;;;5002141;28;19987;-71
2020/12/22 09:39:40;;;;;;;;;;;18.10;75.50;;;;;;5012869;28;19940;-71
2020/12/22 09:42:06;;;;;;;;;;;18.10;75.30;;;;;;4996162;28;19917;-73
2020/12/22 09:44:32;;;;;;;;;;;18.10;75.40;;;;;;5021394;28;19968;-72
2020/12/22 09:46:57;;;;;;;;;;;18.10;75.30;;;;;;4996557;28;19917;-73
2020/12/22 09:49:23;;;;;;;;;;;18.10;75.10;;;;;;5015235;28;19917;-71
2020/12/22 09:51:49;;;;;;;;;;;18.20;75.20;;;;;;5009200;28;19921;-73
2020/12/22 09:54:15;;;;;;;;;;;18.20;75.60;;;;;;4999625;28;19951;-75
2020/12/22 09:56:40;;;;;;;;;;;18.30;75.90;;;;;;4991552;28;19943;-72
2020/12/22 09:59:06;;;;;;;;;;;18.30;75.50;;;;;;4986521;28;19948;-64
2020/12/22 10:01:32;;;;;;;;;;;18.40;75.60;;;;;;5007210;28;19913;-63
2020/12/22 10:03:57;;;;;;;;;;;18.30;75.30;;;;;;5013244;28;19917;-62
2020/12/22 10:06:24;;;;;;;;;;;18.30;75.60;;;;;;4996764;28;19920;-64
2020/12/22 10:08:50;;;;;;;;;;;18.30;75.30;;;;;;5014751;28;19920;-63
2020/12/22 10:11:16;;;;;;;;;;;18.30;75.20;;;;;;5004149;28;19920;-64
2020/12/22 10:13:41;;;;;;;;;;;18.30;75.10;;;;;;5003482;28;19909;-63
2020/12/22 10:16:08;;;;;;;;;;;18.30;75.20;;;;;;5004944;28;19920;-63
2020/12/22 10:18:33;;;;;;;;;;;18.30;75.20;;;;;;5012702;28;20004;-63
2020/12/22 10:21:06;;;;;;;;;;;18.30;75.20;;;;;;4990685;28;20600;-64
2020/12/22 10:23:32;;;;;;;;;;;18.30;75.30;;;;;;5017726;28;20445;-64
2020/12/22 10:25:57;;;;;;;;;;;18.30;75.40;;;;;;5004831;28;19956;-64
2020/12/22 10:28:23;;;;;;;;;;;18.30;75.40;;;;;;5004563;28;19929;-64
2020/12/22 10:30:48;;;;;;;;;;;18.30;75.30;;;;;;5019894;28;19913;-63
2020/12/22 10:33:14;;;;;;;;;;;18.20;75.40;;;;;;4991874;28;19967;-64
2020/12/22 10:35:39;;;;;;;;;;;18.20;75.50;;;;;;4998031;28;19921;-66
2020/12/22 10:38:05;;;;;;;;;;;18.20;75.40;;;;;;5014501;28;20366;-65
2020/12/22 10:40:30;;;;;;;;;;;18.20;75.30;;;;;;5008668;28;19909;-64
2020/12/22 10:42:55;;;;;;;;;;;18.10;75.30;;;;;;5016919;28;19915;-65
2020/12/22 10:45:21;;;;;;;;;;;18.10;75.40;;;;;;5005040;28;19960;-65
2020/12/22 10:47:46;;;;;;;;;;;18.10;75.30;;;;;;4993591;28;19920;-63
2020/12/22 10:50:12;;;;;;;;;;;18.10;75.10;;;;;;4996500;28;19920;-64
2020/12/22 10:52:37;;;;;;;;;;;18.10;75.00;;;;;;4999350;28;19917;-63
2020/12/22 10:55:03;;;;;;;;;;;18.10;74.80;;;;;;5020583;28;19913;-64
2020/12/22 10:57:29;;;;;;;;;;;18.10;74.80;;;;;;5005211;28;20292;-65
2020/12/22 10:59:54;;;;;;;;;;;18.10;74.70;;;;;;5007831;28;20406;-65
2020/12/22 11:02:21;;;;;;;;;;;18.10;74.50;;;;;;4998383;28;20004;-64
2020/12/22 11:04:47;;;;;;;;;;;18.10;74.40;;;;;;5016686;28;19909;-64
2020/12/22 11:07:29;;;;;;;;;;;18.00;74.20;;;;;;4998807;28;19924;-63
2020/12/22 11:09:54;;;;;;;;;;;18.00;74.20;;;;;;5002396;28;20522;-64
2020/12/22 11:12:20;;;;;;;;;;;18.00;74.10;;;;;;5019306;28;19913;-67
2020/12/22 11:14:45;;;;;;;;;;;18.00;74.20;;;;;;5024895;28;20330;-64
2020/12/22 11:17:11;;;;;;;;;;;17.90;74.10;;;;;;5006065;28;19913;-64
2020/12/22 11:19:36;;;;;;;;;;;17.90;74.10;;;;;;5022372;28;20281;-63
2020/12/22 11:22:02;;;;;;;;;;;17.90;74.00;;;;;;5025091;28;20388;-63
2020/12/22 11:24:28;;;;;;;;;;;17.90;73.90;;;;;;4994137;28;19917;-65
2020/12/22 11:26:53;;;;;;;;;;;17.90;73.80;;;;;;4989948;28;19913;-63
2020/12/22 11:29:19;;;;;;;;;;;17.90;73.80;;;;;;4994478;28;19959;-65
2020/12/22 11:31:48;;;;;;;;;;;17.90;73.80;;;;;;5004533;28;19949;-63
2020/12/22 11:34:15;;;;;;;;;;;17.90;73.80;;;;;;5025968;28;20251;-64
2020/12/22 11:36:41;;;;;;;;;;;17.90;73.70;;;;;;5007787;28;19920;-64
2020/12/22 11:39:06;;;;;;;;;;;17.90;73.60;;;;;;4989721;28;19987;-65
2020/12/22 11:41:33;;;;;;;;;;;17.90;73.60;;;;;;4997571;28;20411;-64
2020/12/22 11:43:58;;;;;;;;;;;17.90;73.70;;;;;;5018694;28;19913;-64
2020/12/22 11:46:24;;;;;;;;;;;17.90;73.60;;;;;;5015394;28;19963;-64
2020/12/22 11:48:50;;;;;;;;;;;17.90;73.70;;;;;;5023203;28;19923;-65
2020/12/22 11:51:16;;;;;;;;;;;17.80;73.60;;;;;;4992727;28;20012;-63
2020/12/22 11:53:42;;;;;;;;;;;17.80;73.70;;;;;;5007092;28;19913;-65
2020/12/22 11:56:08;;;;;;;;;;;17.80;73.70;;;;;;5021314;28;19917;-64
2020/12/22 11:58:34;;;;;;;;;;;17.80;73.60;;;;;;5000275;28;20632;-65
2020/12/22 12:00:59;;;;;;;;;;;17.80;73.50;;;;;;5004584;28;19908;-64
2020/12/22 12:03:25;;;;;;;;;;;17.80;73.50;;;;;;5006515;28;19916;-64
2020/12/22 12:05:50;;;;;;;;;;;17.80;73.50;;;;;;5020930;28;19913;-64
2020/12/22 12:08:15;;;;;;;;;;;17.90;73.20;;;;;;5022790;28;19905;-64
2020/12/22 12:10:41;;;;;;;;;;;18.00;73.00;;;;;;5021078;28;19931;-64
2020/12/22 12:13:06;;;;;;;;;;;18.10;72.50;;;;;;5018640;28;19952;-64
2020/12/22 12:15:32;;;;;;;;;;;18.10;72.10;;;;;;5022183;28;19909;-64
2020/12/22 12:17:57;;;;;;;;;;;18.20;71.90;;;;;;5021382;28;19925;-64
2020/12/22 12:20:23;;;;;;;;;;;18.20;72.00;;;;;;5009585;28;20398;-64
2020/12/22 12:22:48;;;;;;;;;;;18.20;72.20;;;;;;5010079;28;20697;-65
2020/12/22 12:25:14;;;;;;;;;;;18.20;72.50;;;;;;5013842;28;19917;-66
2020/12/22 12:27:39;;;;;;;;;;;18.30;72.50;;;;;;4994480;28;19910;-65
2020/12/22 12:30:05;;;;;;;;;;;18.30;72.50;;;;;;5010679;28;19909;-67
2020/12/22 12:32:30;;;;;;;;;;;18.30;72.50;;;;;;5003762;28;19913;-64
2020/12/22 12:34:56;;;;;;;;;;;18.30;72.50;;;;;;5013925;28;19913;-65
2020/12/22 12:37:22;;;;;;;;;;;18.30;72.50;;;;;;5020088;28;19917;-67
2020/12/22 12:39:47;;;;;;;;;;;18.30;72.50;;;;;;4997462;28;19948;-65
2020/12/22 12:42:13;;;;;;;;;;;18.30;72.50;;;;;;5017955;28;19912;-65
2020/12/22 12:44:38;;;;;;;;;;;18.30;72.50;;;;;;4997889;28;19913;-65
2020/12/22 12:47:04;;;;;;;;;;;18.30;72.50;;;;;;5017733;28;19920;-65
2020/12/22 12:49:29;;;;;;;;;;;18.30;72.50;;;;;;4997814;28;19909;-64
2020/12/22 12:51:55;;;;;;;;;;;18.30;72.50;;;;;;4992905;28;19910;-65
2020/12/22 12:54:20;;;;;;;;;;;18.30;72.50;;;;;;4994027;28;19914;-64
2020/12/22 12:56:49;;;;;;;;;;;18.40;72.50;;;;;;5015366;28;19921;-66
2020/12/22 12:59:14;;;;;;;;;;;18.40;72.50;;;;;;4999916;28;19916;-64
2020/12/22 13:01:40;;;;;;;;;;;18.40;72.50;;;;;;4998369;28;19912;-66
2020/12/22 13:04:06;;;;;;;;;;;18.40;72.40;;;;;;5015982;28;20290;-65
2020/12/22 13:06:32;;;;;;;;;;;18.50;72.60;;;;;;5012413;28;20267;-68
2020/12/22 13:08:57;;;;;;;;;;;18.50;72.40;;;;;;5018741;28;19967;-67
2020/12/22 13:11:23;;;;;;;;;;;18.60;72.40;;;;;;5018739;28;20048;-68
2020/12/22 13:13:48;;;;;;;;;;;18.50;72.30;;;;;;5007617;28;20376;-65
2020/12/22 13:16:14;;;;;;;;;;;18.60;72.60;;;;;;5019074;28;19909;-66
2020/12/22 13:18:39;;;;;;;;;;;18.60;72.50;;;;;;5024204;28;20373;-67
2020/12/22 13:21:05;;;;;;;;;;;18.60;72.60;;;;;;5025364;28;19925;-65
2020/12/22 13:23:30;;;;;;;;;;;18.50;72.70;;;;;;5020946;28;19909;-65
2020/12/22 13:25:56;;;;;;;;;;;18.50;72.60;;;;;;5017621;28;19917;-65
2020/12/22 13:28:22;;;;;;;;;;;18.60;72.70;;;;;;4995225;28;19962;-65
2020/12/22 13:30:47;;;;;;;;;;;18.50;72.70;;;;;;5006015;28;19913;-66
2020/12/22 13:33:13;;;;;;;;;;;18.50;72.80;;;;;;5024540;28;20297;-66
2020/12/22 13:35:38;;;;;;;;;;;18.50;72.70;;;;;;4995674;28;20396;-65
2020/12/22 13:38:04;;;;;;;;;;;18.50;72.80;;;;;;5023132;28;19929;-66
2020/12/22 13:40:30;;;;;;;;;;;18.60;72.90;;;;;;5003680;28;19917;-65
2020/12/22 13:42:55;;;;;;;;;;;18.50;72.70;;;;;;5024698;28;20476;-66
2020/12/22 13:45:21;;;;;;;;;;;18.50;72.70;;;;;;5004227;28;19917;-65
2020/12/22 13:47:46;;;;;;;;;;;18.50;72.90;;;;;;5005937;28;20553;-65
2020/12/22 13:50:12;;;;;;;;;;;18.50;73.00;;;;;;5027370;28;20424;-66
2020/12/22 13:52:38;;;;;;;;;;;18.50;73.00;;;;;;5008472;28;20016;-66
2020/12/22 13:55:03;;;;;;;;;;;18.50;73.10;;;;;;5006346;28;20011;-66
2020/12/22 13:57:29;;;;;;;;;;;18.50;73.10;;;;;;5000532;28;19919;-65
2020/12/22 13:59:54;;;;;;;;;;;18.50;72.80;;;;;;5000282;28;19910;-66
2020/12/22 14:02:19;;;;;;;;;;;18.50;72.60;;;;;;5004976;28;19978;-68
2020/12/22 14:04:45;;;;;;;;;;;18.40;72.40;;;;;;5011872;28;19996;-67
2020/12/22 14:07:10;;;;;;;;;;;18.50;72.50;;;;;;5007136;28;19955;-65
2020/12/22 14:09:36;;;;;;;;;;;18.40;72.50;;;;;;5027000;28;19909;-67
2020/12/22 14:12:07;;;;;;;;;;;18.40;72.40;;;;;;5025926;28;19963;-67
2020/12/22 14:14:33;;;;;;;;;;;18.40;72.50;;;;;;5009273;28;19909;-67
2020/12/22 14:16:58;;;;;;;;;;;18.40;72.50;;;;;;5023896;28;20475;-65